Time;durP1;ratioP1;P1;durP2;ratioP2;P2;SDS_P1;SDS_P2;PMS_P1;PMS_P2;Temp;Humidity;BMP_temperature;BMP_pressure;BME280_temperature;BME280_humidity;BME280_pressure;Samples;Min_cycle;Max_cycle;Signal;HPM_P1;HPM_P2
2022/06/26 00:00:15;;;;;;;;;;;;;;;23.38;48.44;101949.09;2083055;28;827;-50
2022/06/26 00:01:16;;;;;;;;;;;;;;;23.37;48.83;101946.44;2083083;28;820;-51
2022/06/26 00:02:16;;;;;;;;;;;;;;;23.41;47.98;101950.84;2083062;28;985;-50
2022/06/26 00:03:17;;;;;;;;;;;;;;;23.41;48.35;101949.94;2083054;28;1068;-50
2022/06/26 00:04:17;;;;;;;;;;;;;;;23.38;48.31;101941.00;2083064;28;982;-50
2022/06/26 00:05:17;;;;;;;;;;;;;;;23.38;48.04;101948.22;2083084;28;845;-49
2022/06/26 00:06:17;;;;;;;;;;;;;;;23.36;48.08;101953.66;2083099;28;982;-50
2022/06/26 00:07:17;;;;;;;;;;;;;;;23.37;47.06;101946.44;2082539;28;1036;-50
2022/06/26 00:08:18;;;;;;;;;;;;;;;23.34;47.04;101950.09;2083043;28;978;-50
2022/06/26 00:09:18;;;;;;;;;;;;;;;23.33;46.49;101950.16;2083049;28;827;-50
2022/06/26 00:10:18;;;;;;;;;;;;;;;23.32;46.42;101946.56;2083054;28;974;-50
2022/06/26 00:11:18;;;;;;;;;;;;;;;23.32;46.14;101945.69;2083167;28;911;-49
2022/06/26 00:12:18;;;;;;;;;;;;;;;23.33;46.25;101947.47;2082999;28;760;-49
2022/06/26 00:13:18;;;;;;;;;;;;;;;23.32;45.12;101948.41;2083005;28;965;-50
2022/06/26 00:14:19;;;;;;;;;;;;;;;23.32;44.93;101946.56;2083026;28;852;-51
2022/06/26 00:15:19;;;;;;;;;;;;;;;23.34;45.27;101946.53;2083020;28;848;-49
2022/06/26 00:16:21;;;;;;;;;;;;;;;23.32;44.90;101940.28;2074216;28;895;-50
2022/06/26 00:17:21;;;;;;;;;;;;;;;23.30;44.77;101944.84;2074425;28;843;-50
2022/06/26 00:18:21;;;;;;;;;;;;;;;23.30;43.92;101937.59;2083135;28;863;-50
2022/06/26 00:19:21;;;;;;;;;;;;;;;23.29;44.06;101943.94;2083037;28;1969;-50
2022/06/26 00:20:22;;;;;;;;;;;;;;;23.24;43.79;101944.09;2082973;28;772;-50
2022/06/26 00:21:22;;;;;;;;;;;;;;;23.23;43.85;101945.00;2083056;28;1025;-49
2022/06/26 00:22:22;;;;;;;;;;;;;;;23.22;43.35;101945.94;2082966;28;914;-50
2022/06/26 00:23:22;;;;;;;;;;;;;;;23.20;43.33;101945.06;2082973;28;978;-49
2022/06/26 00:24:23;;;;;;;;;;;;;;;23.18;43.86;101940.63;2082452;28;980;-51
2022/06/26 00:25:23;;;;;;;;;;;;;;;23.19;43.86;101945.13;2082975;28;977;-50
2022/06/26 00:26:23;;;;;;;;;;;;;;;23.19;43.43;101942.41;2083001;28;1037;-49
2022/06/26 00:27:23;;;;;;;;;;;;;;;23.20;43.13;101944.19;2082986;28;834;-50
2022/06/26 00:28:24;;;;;;;;;;;;;;;23.20;43.45;101947.75;2082836;28;1185;-50
2022/06/26 00:29:24;;;;;;;;;;;;;;;23.21;44.03;101946.84;2082963;28;994;-50
2022/06/26 00:30:24;;;;;;;;;;;;;;;23.20;43.85;101938.78;2074140;28;1348;-50
2022/06/26 00:31:24;;;;;;;;;;;;;;;23.21;43.23;101938.72;2074269;28;839;-50
2022/06/26 00:32:24;;;;;;;;;;;;;;;23.18;43.45;101941.50;2082881;28;1021;-50
2022/06/26 00:33:24;;;;;;;;;;;;;;;23.18;44.38;101940.63;2082963;28;764;-50
2022/06/26 00:34:24;;;;;;;;;;;;;;;23.17;44.32;101933.47;2082950;28;756;-50
2022/06/26 00:35:25;;;;;;;;;;;;;;;23.17;44.14;101936.16;2082998;28;978;-48
2022/06/26 00:36:26;;;;;;;;;;;;;;;23.15;44.27;101930.78;2082984;28;1224;-50
2022/06/26 00:37:26;;;;;;;;;;;;;;;23.16;44.02;101943.38;2082880;28;1204;-49
2022/06/26 00:38:26;;;;;;;;;;;;;;;23.17;44.50;101945.16;2082986;28;1044;-49
2022/06/26 00:39:26;;;;;;;;;;;;;;;23.16;44.64;101942.50;2082848;28;1996;-50
2022/06/26 00:40:27;;;;;;;;;;;;;;;23.15;44.50;101938.88;2082434;28;1059;-49
2022/06/26 00:41:27;;;;;;;;;;;;;;;23.13;44.87;101938.03;2074089;28;959;-49
2022/06/26 00:42:27;;;;;;;;;;;;;;;23.13;44.60;101938.03;2074295;28;770;-49
2022/06/26 00:43:28;;;;;;;;;;;;;;;23.15;44.13;101940.72;2082874;28;1044;-50
2022/06/26 00:44:29;;;;;;;;;;;;;;;23.16;44.34;101937.09;2082901;28;871;-49
2022/06/26 00:45:29;;;;;;;;;;;;;;;23.16;44.99;101943.38;2082904;28;886;-49
2022/06/26 00:46:30;;;;;;;;;;;;;;;23.14;45.03;101945.22;2082876;28;867;-51
2022/06/26 00:47:32;;;;;;;;;;;;;;;23.15;44.39;101944.28;2082913;28;780;-50
2022/06/26 00:48:33;;;;;;;;;;;;;;;23.14;45.18;101944.34;2082905;28;891;-50
2022/06/26 00:49:33;;;;;;;;;;;;;;;23.14;44.32;101942.53;2082883;28;772;-49
2022/06/26 00:50:34;;;;;;;;;;;;;;;23.14;45.33;101949.75;2082908;28;780;-49
2022/06/26 00:51:36;;;;;;;;;;;;;;;23.12;45.46;101947.06;2075172;28;1282;-50
2022/06/26 00:52:37;;;;;;;;;;;;;;;23.12;45.35;101941.66;2075775;28;1177;-49
2022/06/26 00:53:37;;;;;;;;;;;;;;;23.13;44.60;101947.97;2084366;28;1041;-50
2022/06/26 00:54:38;;;;;;;;;;;;;;;23.13;45.31;101946.16;2084430;28;796;-49
2022/06/26 00:55:38;;;;;;;;;;;;;;;23.12;45.35;101947.06;2084352;28;1060;-49
2022/06/26 00:56:38;;;;;;;;;;;;;;;23.13;44.68;101943.44;2083791;28;992;-50
2022/06/26 00:57:39;;;;;;;;;;;;;;;23.13;45.28;101948.84;2084334;28;981;-50
2022/06/26 00:58:39;;;;;;;;;;;;;;;23.10;45.71;101941.72;2075521;28;1427;-50
2022/06/26 00:59:39;;;;;;;;;;;;;;;23.09;45.08;101948.06;2075533;28;1886;-50
2022/06/26 01:00:41;;;;;;;;;;;;;;;23.10;45.73;101943.53;2084299;28;819;-49
2022/06/26 01:01:41;;;;;;;;;;;;;;;23.10;45.65;101946.22;2084323;28;852;-51
2022/06/26 01:02:42;;;;;;;;;;;;;;;23.11;45.83;101948.00;2084328;28;768;-50
2022/06/26 01:03:43;;;;;;;;;;;;;;;23.12;45.17;101946.22;2084285;28;737;-50
2022/06/26 01:04:43;;;;;;;;;;;;;;;23.09;46.08;101939.06;2084281;28;847;-49
2022/06/26 01:05:43;;;;;;;;;;;;;;;23.08;45.17;101943.59;2084286;28;1021;-50
2022/06/26 01:06:44;;;;;;;;;;;;;;;23.09;45.89;101931.84;2084293;28;990;-50
2022/06/26 01:07:45;;;;;;;;;;;;;;;23.10;45.87;101943.53;2084296;28;986;-50
2022/06/26 01:28:04;;;;;;;;;;;;;;;23.03;43.13;101941.91;2107064;28;1267;-49
2022/06/26 01:29:04;;;;;;;;;;;;;;;23.04;43.67;101938.28;2107062;28;865;-50
2022/06/26 01:30:05;;;;;;;;;;;;;;;23.05;42.73;101940.06;2106460;28;976;-51
2022/06/26 01:31:05;;;;;;;;;;;;;;;23.03;42.79;101944.63;2106996;28;905;-51
2022/06/26 01:32:05;;;;;;;;;;;;;;;23.02;42.66;101940.13;2107016;28;869;-51
2022/06/26 01:33:06;;;;;;;;;;;;;;;23.04;43.02;101944.59;2107031;28;791;-51
2022/06/26 01:34:07;;;;;;;;;;;;;;;23.03;43.23;101948.22;2107024;28;810;-51
2022/06/26 01:35:07;;;;;;;;;;;;;;;23.03;43.25;101941.91;2106988;28;1001;-51
2022/06/26 01:36:07;;;;;;;;;;;;;;;23.03;42.42;101950.03;2107039;28;791;-51
2022/06/26 01:37:07;;;;;;;;;;;;;;;23.04;43.33;101950.00;2106597;28;747;-51
2022/06/26 01:38:10;;;;;;;;;;;;;;;23.04;42.59;101944.59;2107331;28;893;-51
2022/06/26 01:39:11;;;;;;;;;;;;;;;23.04;43.48;101941.00;2107312;28;915;-50
2022/06/26 01:40:11;;;;;;;;;;;;;;;23.04;43.32;101941.00;2107312;28;968;-52
2022/06/26 01:41:11;;;;;;;;;;;;;;;23.05;43.15;101937.34;2107296;28;759;-51
2022/06/26 01:42:11;;;;;;;;;;;;;;;23.04;42.65;101943.69;2107288;28;1019;-51
2022/06/26 01:43:12;;;;;;;;;;;;;;;23.05;43.53;101942.75;2107244;28;1031;-51
2022/06/26 01:44:13;;;;;;;;;;;;;;;23.05;43.10;101940.97;2107292;28;956;-52
2022/06/26 01:45:13;;;;;;;;;;;;;;;23.06;43.64;101939.13;2107302;28;941;-51
2022/06/26 01:46:13;;;;;;;;;;;;;;;23.06;43.64;101941.84;2107032;28;1563;-51
2022/06/26 01:47:13;;;;;;;;;;;;;;;23.05;44.04;101937.34;2107200;28;1894;-51
2022/06/26 01:48:14;;;;;;;;;;;;;;;23.05;43.99;101937.34;2107240;28;965;-51
2022/06/26 01:49:14;;;;;;;;;;;;;;;23.05;44.16;101935.56;2107190;28;953;-50
2022/06/26 01:50:15;;;;;;;;;;;;;;;23.05;44.19;101943.66;2107244;28;849;-51
2022/06/26 01:51:15;;;;;;;;;;;;;;;23.05;43.99;101934.66;2107233;28;952;-50
2022/06/26 01:52:15;;;;;;;;;;;;;;;23.06;43.93;101947.25;2107173;28;961;-50
2022/06/26 01:53:15;;;;;;;;;;;;;;;23.07;44.53;101944.50;2107180;28;799;-50
2022/06/26 01:54:17;;;;;;;;;;;;;;;23.07;44.00;101949.00;2107228;28;1031;-51
2022/06/26 01:55:17;;;;;;;;;;;;;;;23.06;44.72;101944.53;2107178;28;878;-50
2022/06/26 01:56:18;;;;;;;;;;;;;;;23.06;43.94;101947.25;2107216;28;859;-51
2022/06/26 01:57:18;;;;;;;;;;;;;;;23.05;44.88;101940.97;2107133;28;812;-51
2022/06/26 01:58:18;;;;;;;;;;;;;;;23.05;44.35;101949.06;2107183;28;1016;-51
2022/06/26 01:59:18;;;;;;;;;;;;;;;23.06;44.39;101945.44;2107128;28;1031;-50
2022/06/26 02:00:18;;;;;;;;;;;;;;;23.07;44.91;101946.31;2107155;28;996;-50
2022/06/26 02:01:18;;;;;;;;;;;;;;;23.08;44.50;101945.38;2107123;28;767;-51
2022/06/26 02:02:19;;;;;;;;;;;;;;;23.08;45.03;101945.38;2107115;28;755;-51
2022/06/26 02:03:20;;;;;;;;;;;;;;;23.07;44.23;101947.22;2106898;28;1136;-51
2022/06/26 02:04:20;;;;;;;;;;;;;;;23.08;44.72;101946.28;2107100;28;1060;-51
2022/06/26 02:05:20;;;;;;;;;;;;;;;23.09;44.58;101949.88;2107099;28;780;-51
2022/06/26 02:06:20;;;;;;;;;;;;;;;23.09;45.06;101947.16;2107042;28;1055;-51
2022/06/26 02:07:20;;;;;;;;;;;;;;;23.09;44.79;101949.88;2107030;28;1894;-51
2022/06/26 02:08:21;;;;;;;;;;;;;;;23.08;45.44;101951.69;2107075;28;901;-50
2022/06/26 02:13:36;;;;;;;;;;;;;;;23.06;45.78;101953.56;2107064;28;672;-51
2022/06/26 02:14:36;;;;;;;;;;;;;;;23.05;45.89;101957.19;2107013;28;866;-52
2022/06/26 02:15:36;;;;;;;;;;;;;;;23.06;45.83;101955.34;2107025;28;976;-51
2022/06/26 02:16:36;;;;;;;;;;;;;;;23.07;45.30;101954.41;2107019;28;1031;-50
2022/06/26 02:17:36;;;;;;;;;;;;;;;23.06;46.17;101955.34;2106990;28;822;-50
2022/06/26 02:18:38;;;;;;;;;;;;;;;23.05;46.23;101957.19;2106980;28;969;-51
2022/06/26 02:19:38;;;;;;;;;;;;;;;23.07;46.07;101959.81;2106832;28;1450;-50
2022/06/26 02:20:39;;;;;;;;;;;;;;;23.06;46.18;101956.25;2107014;28;840;-51
2022/06/26 02:21:40;;;;;;;;;;;;;;;23.06;47.26;101958.06;2106932;28;1175;-51
2022/06/26 02:22:40;;;;;;;;;;;;;;;23.07;47.04;101957.13;2107007;28;895;-50
2022/06/26 02:23:42;;;;;;;;;;;;;;;23.07;47.56;101959.81;2106923;28;988;-50
2022/06/26 02:24:44;;;;;;;;;;;;;;;23.05;47.23;101962.59;2106918;28;818;-52
2022/06/26 02:25:44;;;;;;;;;;;;;;;23.04;48.11;101957.19;2106941;28;865;-51
2022/06/26 02:26:45;;;;;;;;;;;;;;;23.05;48.47;101958.97;2106937;28;841;-51
2022/06/26 02:27:45;;;;;;;;;;;;;;;23.04;47.81;101954.50;2106744;28;1951;-51
2022/06/26 02:28:46;;;;;;;;;;;;;;;23.05;48.11;101967.09;2106922;28;855;-51
2022/06/26 02:29:46;;;;;;;;;;;;;;;23.06;48.91;101960.75;2106886;28;965;-51
2022/06/26 02:30:47;;;;;;;;;;;;;;;23.06;48.83;101964.34;2106222;28;722;-51
2022/06/26 02:31:48;;;;;;;;;;;;;;;23.05;48.82;101964.38;2106313;28;864;-52
2022/06/26 02:32:48;;;;;;;;;;;;;;;23.03;49.58;101971.63;2106918;28;905;-52
2022/06/26 02:33:48;;;;;;;;;;;;;;;23.02;49.73;101972.56;2106865;28;965;-51
2022/06/26 02:34:48;;;;;;;;;;;;;;;23.00;49.70;101964.50;2106838;28;799;-50
2022/06/26 02:35:49;;;;;;;;;;;;;;;23.00;49.98;101963.63;2106662;28;1381;-51
2022/06/26 02:36:49;;;;;;;;;;;;;;;23.00;49.23;101964.50;2106847;28;858;-50
2022/06/26 02:37:49;;;;;;;;;;;;;;;22.99;49.44;101968.16;2106505;28;1172;-52
2022/06/26 02:38:49;;;;;;;;;;;;;;;22.99;50.30;101972.66;2104265;28;993;-51
2022/06/26 02:39:50;;;;;;;;;;;;;;;22.97;50.20;101969.09;2100690;28;981;-51
2022/06/26 02:40:50;;;;;;;;;;;;;;;22.97;50.08;101970.00;2100861;28;688;-53
2022/06/26 02:41:50;;;;;;;;;;;;;;;22.97;50.25;101969.09;2100915;28;870;-51
2022/06/26 02:42:51;;;;;;;;;;;;;;;22.94;49.77;101965.56;2100854;28;890;-50
2022/06/26 02:43:51;;;;;;;;;;;;;;;22.92;49.97;101967.44;2100798;28;973;-52
2022/06/26 02:44:51;;;;;;;;;;;;;;;22.91;49.72;101971.06;2100809;28;784;-50
2022/06/26 02:45:52;;;;;;;;;;;;;;;22.92;49.46;101967.44;2100784;28;1012;-51
2022/06/26 02:46:52;;;;;;;;;;;;;;;22.92;49.33;101970.13;2100827;28;849;-52
2022/06/26 02:47:52;;;;;;;;;;;;;;;22.90;48.49;101963.88;2100738;28;1914;-50
2022/06/26 02:48:52;;;;;;;;;;;;;;;22.89;47.94;101962.09;2100804;28;910;-51
2022/06/26 02:49:52;;;;;;;;;;;;;;;22.91;48.05;101967.44;2100793;28;973;-52
2022/06/26 02:50:53;;;;;;;;;;;;;;;22.89;46.98;101966.59;2100804;28;827;-50
2022/06/26 02:51:53;;;;;;;;;;;;;;;22.89;47.11;101972.00;2100776;28;850;-51
2022/06/26 02:52:53;;;;;;;;;;;;;;;22.89;46.65;101972.91;2100240;28;994;-52
2022/06/26 02:53:53;;;;;;;;;;;;;;;22.87;45.87;101974.75;2100815;28;835;-52
2022/06/26 02:54:53;;;;;;;;;;;;;;;22.85;45.92;101976.63;2100765;28;878;-51
2022/06/26 02:55:53;;;;;;;;;;;;;;;22.86;45.32;101978.38;2100708;28;965;-52
2022/06/26 02:56:53;;;;;;;;;;;;;;;22.86;45.70;101975.69;2100719;28;993;-51
2022/06/26 02:57:54;;;;;;;;;;;;;;;22.85;44.93;101979.31;2100696;28;1028;-52
2022/06/26 02:58:54;;;;;;;;;;;;;;;22.86;45.12;101980.19;2100740;28;989;-50
2022/06/26 02:59:54;;;;;;;;;;;;;;;22.85;44.23;101983.81;2100728;28;634;-51
2022/06/26 03:00:54;;;;;;;;;;;;;;;22.85;44.50;101984.72;2100697;28;843;-51
2022/06/26 03:01:54;;;;;;;;;;;;;;;22.85;43.98;101987.41;2100684;28;973;-52
2022/06/26 03:02:54;;;;;;;;;;;;;;;22.85;44.17;101983.81;2100708;28;1032;-51
2022/06/26 03:03:55;;;;;;;;;;;;;;;22.85;43.88;101983.81;2100840;28;851;-51
2022/06/26 03:04:55;;;;;;;;;;;;;;;22.85;44.08;101987.41;2100704;28;973;-51
2022/06/26 03:05:55;;;;;;;;;;;;;;;22.85;43.71;101989.22;2100675;28;670;-52
2022/06/26 03:06:55;;;;;;;;;;;;;;;22.88;43.31;101984.63;2100684;28;881;-51
2022/06/26 03:07:56;;;;;;;;;;;;;;;22.88;43.68;101989.13;2100609;28;1961;-51
2022/06/26 03:08:56;;;;;;;;;;;;;;;22.88;44.03;101990.03;2100115;28;991;-51
2022/06/26 03:09:56;;;;;;;;;;;;;;;22.88;43.75;101992.75;2100648;28;1044;-51
2022/06/26 03:10:56;;;;;;;;;;;;;;;22.88;44.29;101987.34;2100629;28;1051;-51
2022/06/26 03:11:56;;;;;;;;;;;;;;;22.88;43.92;101992.75;2100639;28;831;-52
2022/06/26 03:12:57;;;;;;;;;;;;;;;22.89;44.21;101997.22;2100634;28;692;-50
2022/06/26 03:13:58;;;;;;;;;;;;;;;22.90;44.38;101993.59;2100625;28;977;-51
2022/06/26 03:14:58;;;;;;;;;;;;;;;22.89;43.78;101988.22;2099987;28;876;-51
2022/06/26 03:15:58;;;;;;;;;;;;;;;22.89;44.47;101990.91;2100038;28;957;-51
2022/06/26 03:16:58;;;;;;;;;;;;;;;22.89;44.67;101988.22;2100588;28;1017;-50
2022/06/26 03:17:59;;;;;;;;;;;;;;;22.89;44.74;101993.63;2100585;28;859;-51
2022/06/26 03:18:59;;;;;;;;;;;;;;;22.90;44.11;101990.91;2099877;28;761;-52
2022/06/26 03:20:00;;;;;;;;;;;;;;;22.90;44.41;101993.59;2099992;28;826;-51
2022/06/26 03:21:00;;;;;;;;;;;;;;;22.90;44.89;101993.59;2100576;28;961;-50
2022/06/26 03:22:00;;;;;;;;;;;;;;;22.90;44.97;101993.59;2100600;28;830;-51
2022/06/26 03:23:00;;;;;;;;;;;;;;;22.90;45.02;101993.59;2100536;28;984;-52
2022/06/26 03:24:03;;;;;;;;;;;;;;;22.89;44.43;101993.63;2100545;28;775;-51
2022/06/26 03:25:05;;;;;;;;;;;;;;;22.90;44.97;102001.69;2100522;28;850;-51
2022/06/26 03:26:05;;;;;;;;;;;;;;;22.89;44.82;102001.72;2100130;28;979;-51
2022/06/26 03:27:05;;;;;;;;;;;;;;;22.89;44.41;101997.22;2100262;28;1910;-50
2022/06/26 03:28:05;;;;;;;;;;;;;;;22.89;45.05;101994.53;2100508;28;845;-51
2022/06/26 03:29:06;;;;;;;;;;;;;;;22.88;44.68;101992.75;2100467;28;941;-50
2022/06/26 03:30:07;;;;;;;;;;;;;;;22.88;45.24;101995.44;2100618;28;941;-52
2022/06/26 03:31:08;;;;;;;;;;;;;;;22.89;45.53;101999.94;2100512;28;909;-52
2022/06/26 03:32:08;;;;;;;;;;;;;;;22.89;45.67;101996.31;2100476;28;850;-50
2022/06/26 03:33:08;;;;;;;;;;;;;;;22.88;45.18;101998.16;2100505;28;767;-51
2022/06/26 03:34:08;;;;;;;;;;;;;;;22.89;45.52;101997.22;2100570;28;972;-51
2022/06/26 03:35:09;;;;;;;;;;;;;;;22.88;45.58;101998.16;2100435;28;1024;-51
2022/06/26 03:36:09;;;;;;;;;;;;;;;22.88;45.71;101998.16;2100428;28;882;-50
2022/06/26 03:37:09;;;;;;;;;;;;;;;22.87;45.94;101996.38;2100435;28;965;-52
2022/06/26 03:38:10;;;;;;;;;;;;;;;22.88;45.94;101991.84;2100396;28;837;-50
2022/06/26 03:39:10;;;;;;;;;;;;;;;22.88;45.67;101995.44;2100517;28;748;-51
2022/06/26 03:40:11;;;;;;;;;;;;;;;22.88;46.19;101997.25;2100409;28;882;-51
2022/06/26 03:41:11;;;;;;;;;;;;;;;22.87;45.52;101996.38;2100395;28;898;-50
2022/06/26 03:42:11;;;;;;;;;;;;;;;22.87;45.50;101998.16;2098781;28;1183;-51
2022/06/26 03:43:12;;;;;;;;;;;;;;;22.86;46.28;101991.00;2099764;28;834;-51
2022/06/26 03:44:12;;;;;;;;;;;;;;;22.87;45.76;101998.16;2100369;28;767;-51
2022/06/26 03:45:12;;;;;;;;;;;;;;;22.87;45.51;101995.47;2100351;28;976;-51
2022/06/26 03:46:13;;;;;;;;;;;;;;;22.87;45.75;101993.69;2100348;28;817;-50
2022/06/26 03:47:13;;;;;;;;;;;;;;;22.85;45.21;101995.53;2100277;28;1890;-51
2022/06/26 03:48:13;;;;;;;;;;;;;;;22.86;45.26;101993.69;2100492;28;736;-50
2022/06/26 03:49:13;;;;;;;;;;;;;;;22.85;45.04;101990.13;2100263;28;839;-51
2022/06/26 03:50:13;;;;;;;;;;;;;;;22.85;44.90;101992.81;2100165;28;1025;-51
2022/06/26 03:51:14;;;;;;;;;;;;;;;22.85;44.63;101998.22;2099468;28;1395;-52
2022/06/26 03:52:14;;;;;;;;;;;;;;;22.86;44.23;101993.69;2100341;28;845;-50
2022/06/26 03:53:14;;;;;;;;;;;;;;;22.87;44.33;101992.78;2100292;28;914;-51
2022/06/26 03:54:14;;;;;;;;;;;;;;;22.86;44.40;101996.41;2100268;28;1063;-51
2022/06/26 03:55:15;;;;;;;;;;;;;;;22.87;43.51;101993.69;2100309;28;882;-51
2022/06/26 03:56:16;;;;;;;;;;;;;;;22.87;43.80;101995.47;2100273;28;783;-52
2022/06/26 03:57:16;;;;;;;;;;;;;;;22.88;43.92;101992.75;2100276;28;878;-51
2022/06/26 03:58:16;;;;;;;;;;;;;;;22.89;43.38;101996.31;2100365;28;829;-51
2022/06/26 03:59:16;;;;;;;;;;;;;;;22.90;43.05;101995.41;2099727;28;983;-50
2022/06/26 04:00:17;;;;;;;;;;;;;;;22.89;43.87;101990.91;2100245;28;711;-50
2022/06/26 04:01:17;;;;;;;;;;;;;;;22.89;43.85;101989.13;2100217;28;816;-51
2022/06/26 04:02:17;;;;;;;;;;;;;;;23.08;42.81;101988.63;2100228;28;838;-51
2022/06/26 04:03:18;;;;;;;;;;;;;;;24.16;40.54;101992.88;2100235;28;826;-51
2022/06/26 04:04:18;;;;;;;;;;;;;;;24.92;38.82;101990.47;2100199;28;920;-51
2022/06/26 04:05:18;;;;;;;;;;;;;;;25.31;37.98;101992.78;2100198;28;973;-54
2022/06/26 04:06:18;;;;;;;;;;;;;;;25.73;37.34;101990.38;2100172;28;1048;-53
2022/06/26 04:07:20;;;;;;;;;;;;;;;26.11;36.36;101995.31;2100126;28;1886;-54
2022/06/26 04:08:20;;;;;;;;;;;;;;;26.33;36.18;101982.66;2100160;28;795;-53
2022/06/26 04:09:20;;;;;;;;;;;;;;;26.44;36.15;101993.09;2100166;28;763;-53
2022/06/26 04:10:20;;;;;;;;;;;;;;;26.71;35.53;101986.59;2100134;28;791;-51
2022/06/26 04:11:20;;;;;;;;;;;;;;;26.82;35.24;101984.31;2100121;28;965;-51
2022/06/26 04:12:21;;;;;;;;;;;;;;;27.10;35.57;101983.16;2100147;28;894;-51
2022/06/26 04:13:21;;;;;;;;;;;;;;;27.29;34.48;101991.38;2100110;28;779;-50
2022/06/26 04:14:21;;;;;;;;;;;;;;;27.43;35.04;101989.88;2099450;28;792;-50
2022/06/26 04:15:21;;;;;;;;;;;;;;;27.64;34.26;101982.63;2098665;28;997;-51
2022/06/26 04:16:21;;;;;;;;;;;;;;;27.88;33.72;101996.94;2100078;28;779;-52
2022/06/26 04:17:22;;;;;;;;;;;;;;;28.16;33.74;101994.75;2100239;28;668;-50
2022/06/26 04:18:22;;;;;;;;;;;;;;;28.62;32.99;101989.78;2100113;28;803;-53
2022/06/26 04:19:22;;;;;;;;;;;;;;;28.61;32.87;102000.78;2100105;28;839;-51
2022/06/26 04:20:23;;;;;;;;;;;;;;;28.81;32.39;101991.63;2100081;28;1000;-51
2022/06/26 04:21:23;;;;;;;;;;;;;;;28.66;32.59;101998.69;2100083;28;865;-51
2022/06/26 04:22:23;;;;;;;;;;;;;;;28.97;31.94;101994.44;2100070;28;1068;-52
2022/06/26 04:23:23;;;;;;;;;;;;;;;28.85;32.32;101999.56;2100007;28;997;-52
2022/06/26 04:24:23;;;;;;;;;;;;;;;28.85;32.68;101995.97;2100045;28;965;-50
2022/06/26 04:25:24;;;;;;;;;;;;;;;28.83;32.39;101996.06;2100014;28;1028;-50
2022/06/26 04:26:24;;;;;;;;;;;;;;;28.78;32.67;101997.22;2099349;28;888;-50
2022/06/26 04:27:24;;;;;;;;;;;;;;;28.62;32.70;102000.69;2099268;28;1980;-51
2022/06/26 04:28:25;;;;;;;;;;;;;;;28.69;32.79;101999.41;2100016;28;824;-50
2022/06/26 04:29:25;;;;;;;;;;;;;;;28.72;32.40;101998.41;2100003;28;906;-51
2022/06/26 04:30:25;;;;;;;;;;;;;;;28.80;32.43;101998.03;2100017;28;787;-51
2022/06/26 04:31:25;;;;;;;;;;;;;;;28.98;32.53;101999.81;2100038;28;925;-50
2022/06/26 04:32:25;;;;;;;;;;;;;;;29.19;32.00;101998.78;2099496;28;1211;-51
2022/06/26 04:33:25;;;;;;;;;;;;;;;29.06;32.21;102004.88;2099952;28;1024;-50
2022/06/26 04:34:26;;;;;;;;;;;;;;;29.11;32.14;102002.78;2099986;28;771;-52
2022/06/26 04:35:26;;;;;;;;;;;;;;;28.81;32.83;102002.53;2099982;28;1009;-53
2022/06/26 04:36:26;;;;;;;;;;;;;;;29.03;32.45;102006.88;2099967;28;851;-50
2022/06/26 04:37:26;;;;;;;;;;;;;;;29.28;32.09;101996.44;2099847;28;1179;-51
2022/06/26 04:38:26;;;;;;;;;;;;;;;29.09;32.48;102003.84;2099941;28;1032;-52
2022/06/26 04:39:26;;;;;;;;;;;;;;;29.33;32.43;102003.50;2099928;28;1039;-51
2022/06/26 04:40:27;;;;;;;;;;;;;;;29.53;31.96;101999.75;2099925;28;1043;-51
2022/06/26 04:41:34;;;;;;;;;;;;;;;29.38;31.78;101999.63;2099943;28;843;-51
2022/06/26 04:42:35;;;;;;;;;;;;;;;29.54;31.89;102006.97;2099927;28;826;-51
2022/06/26 04:43:35;;;;;;;;;;;;;;;29.57;31.64;101994.06;2099972;28;989;-51
2022/06/26 04:44:35;;;;;;;;;;;;;;;29.85;31.90;101997.97;2099917;28;784;-52
2022/06/26 04:45:35;;;;;;;;;;;;;;;29.85;32.18;101997.13;2099897;28;751;-51
2022/06/26 04:46:36;;;;;;;;;;;;;;;29.69;33.15;102006.13;2099902;28;921;-50
2022/06/26 04:47:37;;;;;;;;;;;;;;;29.86;33.18;102001.59;2099791;28;1894;-52
2022/06/26 04:48:37;;;;;;;;;;;;;;;30.30;32.18;102006.44;2099371;28;1097;-51
2022/06/26 04:49:37;;;;;;;;;;;;;;;30.49;31.87;102005.41;2099876;28;752;-51
2022/06/26 04:50:37;;;;;;;;;;;;;;;30.42;32.56;102002.13;2099850;28;866;-51
2022/06/26 04:51:38;;;;;;;;;;;;;;;29.99;33.87;102002.72;2099903;28;811;-52
2022/06/26 04:52:38;;;;;;;;;;;;;;;30.55;32.68;102004.13;2099853;28;851;-51
2022/06/26 04:53:38;;;;;;;;;;;;;;;30.08;33.51;102005.88;2099859;28;854;-50
2022/06/26 04:54:39;;;;;;;;;;;;;;;30.29;33.04;102006.53;2099864;28;846;-51
2022/06/26 04:55:39;;;;;;;;;;;;;;;29.98;33.58;102002.78;2099815;28;1004;-52
2022/06/26 04:56:39;;;;;;;;;;;;;;;30.21;33.97;102000.63;2099925;28;889;-51
2022/06/26 04:57:39;;;;;;;;;;;;;;;30.08;33.78;102000.41;2099802;28;985;-51
2022/06/26 04:58:40;;;;;;;;;;;;;;;29.91;33.92;102004.97;2099847;28;779;-52
2022/06/26 04:59:40;;;;;;;;;;;;;;;29.81;34.13;102001.84;2099792;28;747;-50
2022/06/26 05:00:40;;;;;;;;;;;;;;;30.41;33.41;101997.63;2099779;28;785;-52
2022/06/26 05:01:40;;;;;;;;;;;;;;;30.29;33.40;101998.34;2099132;28;847;-51
2022/06/26 05:02:40;;;;;;;;;;;;;;;30.26;33.52;102002.13;2098957;28;988;-51
2022/06/26 05:03:40;;;;;;;;;;;;;;;30.67;32.82;101998.00;2099761;28;918;-51
2022/06/26 05:04:41;;;;;;;;;;;;;;;30.59;32.58;102001.19;2099781;28;894;-51
2022/06/26 05:05:41;;;;;;;;;;;;;;;30.93;32.43;102002.88;2099253;28;1004;-51
2022/06/26 05:06:41;;;;;;;;;;;;;;;30.57;32.54;102002.19;2099754;28;808;-51
2022/06/26 05:07:41;;;;;;;;;;;;;;;30.54;32.46;102000.53;2099717;28;1894;-52
2022/06/26 05:08:41;;;;;;;;;;;;;;;31.01;31.49;101997.84;2099784;28;997;-51
2022/06/26 05:09:41;;;;;;;;;;;;;;;30.79;31.82;102001.84;2099860;28;914;-52
2022/06/26 05:10:42;;;;;;;;;;;;;;;30.46;31.95;101994.63;2099798;28;853;-51
2022/06/26 05:11:42;;;;;;;;;;;;;;;30.34;31.76;102000.81;2099781;28;1024;-51
2022/06/26 05:12:43;;;;;;;;;;;;;;;30.24;31.80;101993.13;2099795;28;1019;-51
2022/06/26 05:13:43;;;;;;;;;;;;;;;30.14;31.63;101998.25;2099705;28;1080;-50
2022/06/26 05:14:43;;;;;;;;;;;;;;;30.53;30.54;101996.03;2099775;28;775;-51
2022/06/26 05:15:44;;;;;;;;;;;;;;;30.28;31.08;102002.91;2099753;28;1036;-50
2022/06/26 05:16:44;;;;;;;;;;;;;;;30.29;30.58;101993.75;2099735;28;795;-51
2022/06/26 05:17:44;;;;;;;;;;;;;;;30.30;30.61;101997.38;2099762;28;814;-51
2022/06/26 05:18:44;;;;;;;;;;;;;;;30.54;29.84;101997.81;2099747;28;759;-50
2022/06/26 05:19:44;;;;;;;;;;;;;;;30.37;30.03;101997.91;2099717;28;1167;-52
2022/06/26 05:20:44;;;;;;;;;;;;;;;30.53;29.55;102000.63;2099740;28;795;-50
2022/06/26 05:21:45;;;;;;;;;;;;;;;30.44;30.03;102000.19;2099741;28;834;-52
2022/06/26 05:22:45;;;;;;;;;;;;;;;30.88;28.89;101995.81;2099204;28;1050;-52
2022/06/26 05:23:45;;;;;;;;;;;;;;;30.93;29.06;102000.16;2099715;28;751;-52
2022/06/26 05:24:45;;;;;;;;;;;;;;;30.85;28.68;102000.63;2099693;28;787;-51
2022/06/26 05:25:45;;;;;;;;;;;;;;;31.02;28.50;101997.72;2099693;28;1011;-51
2022/06/26 05:26:46;;;;;;;;;;;;;;;30.66;28.67;101993.50;2099781;28;764;-51
2022/06/26 05:27:46;;;;;;;;;;;;;;;30.57;29.02;102005.88;2099531;28;1964;-50
2022/06/26 05:28:46;;;;;;;;;;;;;;;30.65;28.62;101999.03;2099694;28;775;-53
2022/06/26 05:29:46;;;;;;;;;;;;;;;30.56;28.56;101995.88;2099695;28;977;-52
2022/06/26 05:30:46;;;;;;;;;;;;;;;30.45;28.57;102001.06;2099712;28;842;-52
2022/06/26 05:31:46;;;;;;;;;;;;;;;30.75;28.15;101986.59;2099783;28;977;-52
2022/06/26 05:32:47;;;;;;;;;;;;;;;30.37;28.47;102000.63;2099669;28;659;-51
2022/06/26 05:33:47;;;;;;;;;;;;;;;30.69;28.87;101996.06;2099694;28;826;-51
2022/06/26 05:34:47;;;;;;;;;;;;;;;30.69;28.65;101987.84;2099652;28;937;-51
2022/06/26 05:35:47;;;;;;;;;;;;;;;30.51;28.86;101992.53;2099691;28;1020;-51
2022/06/26 05:36:48;;;;;;;;;;;;;;;31.01;28.62;101992.34;2099659;28;973;-50
2022/06/26 05:37:48;;;;;;;;;;;;;;;30.97;28.20;101994.38;2099558;28;807;-52
2022/06/26 05:38:48;;;;;;;;;;;;;;;30.81;29.12;101997.16;2098109;28;1038;-51
2022/06/26 05:39:48;;;;;;;;;;;;;;;30.62;28.89;101991.91;2099084;28;885;-53
2022/06/26 05:40:48;;;;;;;;;;;;;;;30.53;28.82;101998.78;2099649;28;735;-51